sensor_id;sensor_type;location;lat;lon;timestamp;pressure;altitude;pressure_sealevel;temperature;humidity
71109;BME280;59614;51.012;-1.648;2023-03-01T00:01:23;102293.38;;;5.28;83.53
71109;BME280;59614;51.012;-1.648;2023-03-01T00:03:50;102288.75;;;5.21;83.92
71109;BME280;59614;51.012;-1.648;2023-03-01T00:06:15;102288.16;;;5.28;83.73
71109;BME280;59614;51.012;-1.648;2023-03-01T00:08:42;102289.81;;;5.26;83.57
71109;BME280;59614;51.012;-1.648;2023-03-01T00:11:11;102286.03;;;5.18;84.10
71109;BME280;59614;51.012;-1.648;2023-03-01T00:13:37;102277.41;;;5.20;83.79
71109;BME280;59614;51.012;-1.648;2023-03-01T00:16:09;102290.69;;;5.26;83.82
71109;BME280;59614;51.012;-1.648;2023-03-01T00:18:34;102285.47;;;5.26;84.00
71109;BME280;59614;51.012;-1.648;2023-03-01T00:21:00;102286.81;;;5.15;84.38
71109;BME280;59614;51.012;-1.648;2023-03-01T00:23:26;102294.72;;;5.17;84.33
71109;BME280;59614;51.012;-1.648;2023-03-01T00:25:51;102303.19;;;5.09;84.73
71109;BME280;59614;51.012;-1.648;2023-03-01T00:28:17;102294.50;;;5.10;84.92
71109;BME280;59614;51.012;-1.648;2023-03-01T00:30:43;102297.00;;;5.07;85.30
71109;BME280;59614;51.012;-1.648;2023-03-01T00:33:08;102306.88;;;5.15;84.94
71109;BME280;59614;51.012;-1.648;2023-03-01T00:35:35;102304.09;;;5.10;84.91
71109;BME280;59614;51.012;-1.648;2023-03-01T00:38:00;102306.75;;;5.12;85.10
71109;BME280;59614;51.012;-1.648;2023-03-01T00:40:27;102312.66;;;5.06;85.65
71109;BME280;59614;51.012;-1.648;2023-03-01T00:42:53;102313.44;;;5.03;85.84
71109;BME280;59614;51.012;-1.648;2023-03-01T00:45:18;102314.22;;;5.01;85.63
71109;BME280;59614;51.012;-1.648;2023-03-01T00:47:44;102321.50;;;5.09;85.90
71109;BME280;59614;51.012;-1.648;2023-03-01T00:50:11;102317.84;;;5.04;85.86
71109;BME280;59614;51.012;-1.648;2023-03-01T00:52:37;102308.19;;;5.03;85.62
71109;BME280;59614;51.012;-1.648;2023-03-01T00:55:03;102310.88;;;5.05;86.21
71109;BME280;59614;51.012;-1.648;2023-03-01T00:57:28;102315.06;;;5.00;86.48
71109;BME280;59614;51.012;-1.648;2023-03-01T00:59:54;102310.19;;;5.10;86.44
71109;BME280;59614;51.012;-1.648;2023-03-01T01:02:20;102303.28;;;5.13;86.29
71109;BME280;59614;51.012;-1.648;2023-03-01T01:04:46;102310.66;;;4.99;87.14
71109;BME280;59614;51.012;-1.648;2023-03-01T01:07:12;102310.34;;;4.91;88.67
71109;BME280;59614;51.012;-1.648;2023-03-01T01:09:38;102313.59;;;4.84;89.50
71109;BME280;59614;51.012;-1.648;2023-03-01T01:12:04;102307.59;;;4.63;90.47
71109;BME280;59614;51.012;-1.648;2023-03-01T01:14:29;102307.06;;;4.72;90.14
71109;BME280;59614;51.012;-1.648;2023-03-01T01:16:54;102305.94;;;4.66;90.40
71109;BME280;59614;51.012;-1.648;2023-03-01T01:19:20;102314.78;;;4.46;90.99
71109;BME280;59614;51.012;-1.648;2023-03-01T01:21:46;102304.31;;;4.46;90.74
71109;BME280;59614;51.012;-1.648;2023-03-01T01:24:13;102309.28;;;4.40;90.50
71109;BME280;59614;51.012;-1.648;2023-03-01T01:26:39;102307.25;;;4.54;89.97
71109;BME280;59614;51.012;-1.648;2023-03-01T01:29:05;102309.72;;;4.51;89.80
71109;BME280;59614;51.012;-1.648;2023-03-01T01:31:32;102306.59;;;4.60;90.05
71109;BME280;59614;51.012;-1.648;2023-03-01T01:33:59;102306.41;;;4.78;89.01
71109;BME280;59614;51.012;-1.648;2023-03-01T01:36:25;102304.16;;;4.89;88.35
71109;BME280;59614;51.012;-1.648;2023-03-01T01:38:51;102308.72;;;4.70;89.06
71109;BME280;59614;51.012;-1.648;2023-03-01T01:41:17;102299.13;;;4.71;89.05
71109;BME280;59614;51.012;-1.648;2023-03-01T01:43:47;102304.91;;;4.62;89.77
71109;BME280;59614;51.012;-1.648;2023-03-01T01:46:28;102298.34;;;4.73;88.39
71109;BME280;59614;51.012;-1.648;2023-03-01T01:49:04;102297.34;;;4.70;88.75
71109;BME280;59614;51.012;-1.648;2023-03-01T01:51:37;102296.44;;;4.92;88.25
71109;BME280;59614;51.012;-1.648;2023-03-01T01:54:10;102295.63;;;4.93;88.23
71109;BME280;59614;51.012;-1.648;2023-03-01T01:56:40;102291.91;;;4.88;88.02
71109;BME280;59614;51.012;-1.648;2023-03-01T01:59:09;102292.66;;;4.84;88.96
71109;BME280;59614;51.012;-1.648;2023-03-01T02:01:34;102290.81;;;4.81;89.14
71109;BME280;59614;51.012;-1.648;2023-03-01T02:04:00;102289.59;;;4.71;89.59
71109;BME280;59614;51.012;-1.648;2023-03-01T02:06:30;102282.91;;;4.79;89.94
71109;BME280;59614;51.012;-1.648;2023-03-01T02:09:00;102284.56;;;4.77;89.77
71109;BME280;59614;51.012;-1.648;2023-03-01T02:11:27;102274.44;;;4.87;89.19
71109;BME280;59614;51.012;-1.648;2023-03-01T02:13:54;102277.53;;;4.76;89.34
71109;BME280;59614;51.012;-1.648;2023-03-01T02:16:20;102282.63;;;4.49;90.31
71109;BME280;59614;51.012;-1.648;2023-03-01T02:18:46;102275.69;;;4.50;89.97
71109;BME280;59614;51.012;-1.648;2023-03-01T02:21:50;102268.59;;;4.47;89.45
71109;BME280;59614;51.012;-1.648;2023-03-01T02:25:02;102269.25;;;4.41;89.05
71109;BME280;59614;51.012;-1.648;2023-03-01T02:27:40;102266.34;;;4.33;89.39
71109;BME280;59614;51.012;-1.648;2023-03-01T02:30:10;102271.50;;;4.09;90.78
71109;BME280;59614;51.012;-1.648;2023-03-01T02:32:39;102253.81;;;4.02;91.27
71109;BME280;59614;51.012;-1.648;2023-03-01T02:35:09;102271.25;;;4.03;90.75
71109;BME280;59614;51.012;-1.648;2023-03-01T02:37:36;102269.19;;;4.40;89.44
71109;BME280;59614;51.012;-1.648;2023-03-01T02:40:05;102263.31;;;4.23;89.16
71109;BME280;59614;51.012;-1.648;2023-03-01T02:42:35;102266.97;;;4.28;89.35
71109;BME280;59614;51.012;-1.648;2023-03-01T02:45:02;102258.44;;;4.55;87.68
71109;BME280;59614;51.012;-1.648;2023-03-01T02:47:28;102258.06;;;4.68;87.23
71109;BME280;59614;51.012;-1.648;2023-03-01T02:49:54;102257.13;;;4.66;86.83
71109;BME280;59614;51.012;-1.648;2023-03-01T02:57:27;102241.28;;;4.63;89.46
71109;BME280;59614;51.012;-1.648;2023-03-01T02:59:55;102242.56;;;4.50;91.20
71109;BME280;59614;51.012;-1.648;2023-03-01T03:02:23;102247.69;;;4.47;91.50
71109;BME280;59614;51.012;-1.648;2023-03-01T03:05:13;102248.47;;;4.44;91.90
71109;BME280;59614;51.012;-1.648;2023-03-01T03:07:41;102244.97;;;4.44;92.17
71109;BME280;59614;51.012;-1.648;2023-03-01T03:10:11;102246.69;;;4.43;90.14
71109;BME280;59614;51.012;-1.648;2023-03-01T03:12:38;102243.22;;;4.44;91.17
71109;BME280;59614;51.012;-1.648;2023-03-01T03:15:05;102240.97;;;4.54;90.90
71109;BME280;59614;51.012;-1.648;2023-03-01T03:17:38;102251.59;;;4.58;91.14
71109;BME280;59614;51.012;-1.648;2023-03-01T03:20:05;102237.94;;;4.66;90.53
71109;BME280;59614;51.012;-1.648;2023-03-01T03:22:31;102235.41;;;4.69;90.19
71109;BME280;59614;51.012;-1.648;2023-03-01T03:24:59;102234.78;;;4.52;90.35
71109;BME280;59614;51.012;-1.648;2023-03-01T03:27:25;102228.78;;;4.54;89.92
71109;BME280;59614;51.012;-1.648;2023-03-01T03:29:50;102230.47;;;4.29;88.04
71109;BME280;59614;51.012;-1.648;2023-03-01T03:32:16;102221.06;;;4.35;85.08
71109;BME280;59614;51.012;-1.648;2023-03-01T03:34:41;102221.31;;;4.41;85.93
71109;BME280;59614;51.012;-1.648;2023-03-01T03:37:06;102219.66;;;4.43;85.95
71109;BME280;59614;51.012;-1.648;2023-03-01T03:39:52;102218.75;;;4.42;86.26
71109;BME280;59614;51.012;-1.648;2023-03-01T03:42:21;102225.41;;;4.34;86.88
71109;BME280;59614;51.012;-1.648;2023-03-01T03:44:47;102222.84;;;4.36;87.93
71109;BME280;59614;51.012;-1.648;2023-03-01T03:47:13;102219.19;;;4.30;88.81
71109;BME280;59614;51.012;-1.648;2023-03-01T03:49:38;102216.50;;;4.29;89.07
71109;BME280;59614;51.012;-1.648;2023-03-01T03:52:03;102223.50;;;4.30;89.71
71109;BME280;59614;51.012;-1.648;2023-03-01T03:54:29;102219.19;;;4.30;90.67
71109;BME280;59614;51.012;-1.648;2023-03-01T03:56:54;102215.44;;;4.46;90.32
71109;BME280;59614;51.012;-1.648;2023-03-01T03:59:20;102214.47;;;4.44;90.39
71109;BME280;59614;51.012;-1.648;2023-03-01T04:01:45;102211.72;;;4.41;90.59
71109;BME280;59614;51.012;-1.648;2023-03-01T04:04:10;102203.88;;;4.41;91.36
71109;BME280;59614;51.012;-1.648;2023-03-01T04:06:36;102197.63;;;4.36;91.52
71109;BME280;59614;51.012;-1.648;2023-03-01T04:09:01;102201.38;;;4.20;92.28
71109;BME280;59614;51.012;-1.648;2023-03-01T04:11:27;102206.69;;;4.23;92.19
71109;BME280;59614;51.012;-1.648;2023-03-01T04:13:57;102209.59;;;4.31;92.38
71109;BME280;59614;51.012;-1.648;2023-03-01T04:16:23;102200.16;;;4.35;91.83
71109;BME280;59614;51.012;-1.648;2023-03-01T04:18:49;102196.16;;;4.44;91.08
71109;BME280;59614;51.012;-1.648;2023-03-01T04:21:14;102195.97;;;4.38;91.35
71109;BME280;59614;51.012;-1.648;2023-03-01T04:23:40;102190.34;;;4.29;91.69
71109;BME280;59614;51.012;-1.648;2023-03-01T04:26:06;102193.03;;;4.30;91.60
71109;BME280;59614;51.012;-1.648;2023-03-01T04:28:34;102199.16;;;4.31;91.82
71109;BME280;59614;51.012;-1.648;2023-03-01T04:31:11;102192.91;;;4.27;92.09
71109;BME280;59614;51.012;-1.648;2023-03-01T04:33:46;102191.75;;;4.19;92.08
71109;BME280;59614;51.012;-1.648;2023-03-01T04:36:14;102198.56;;;4.15;92.60
71109;BME280;59614;51.012;-1.648;2023-03-01T04:38:40;102193.28;;;4.14;91.85
71109;BME280;59614;51.012;-1.648;2023-03-01T04:41:08;102186.56;;;4.21;92.47
71109;BME280;59614;51.012;-1.648;2023-03-01T04:43:34;102183.44;;;4.07;92.37
71109;BME280;59614;51.012;-1.648;2023-03-01T04:46:05;102194.88;;;4.10;91.91
71109;BME280;59614;51.012;-1.648;2023-03-01T04:48:33;102185.38;;;4.12;91.94
71109;BME280;59614;51.012;-1.648;2023-03-01T04:50:59;102181.41;;;4.22;91.38
71109;BME280;59614;51.012;-1.648;2023-03-01T04:53:26;102183.47;;;4.08;91.53
71109;BME280;59614;51.012;-1.648;2023-03-01T04:55:51;102184.13;;;4.02;92.13
71109;BME280;59614;51.012;-1.648;2023-03-01T04:58:18;102177.19;;;4.03;91.69
71109;BME280;59614;51.012;-1.648;2023-03-01T05:00:44;102184.56;;;4.13;91.37
71109;BME280;59614;51.012;-1.648;2023-03-01T05:03:09;102173.84;;;4.07;91.95
71109;BME280;59614;51.012;-1.648;2023-03-01T05:05:37;102185.88;;;4.02;91.89
71109;BME280;59614;51.012;-1.648;2023-03-01T05:08:06;102187.16;;;3.91;92.88
71109;BME280;59614;51.012;-1.648;2023-03-01T05:10:33;102180.38;;;3.96;93.37
71109;BME280;59614;51.012;-1.648;2023-03-01T05:13:01;102175.97;;;3.95;93.80
71109;BME280;59614;51.012;-1.648;2023-03-01T05:15:28;102174.34;;;3.97;93.62
71109;BME280;59614;51.012;-1.648;2023-03-01T05:17:55;102178.59;;;3.95;93.48
71109;BME280;59614;51.012;-1.648;2023-03-01T05:20:23;102174.81;;;3.86;94.19
71109;BME280;59614;51.012;-1.648;2023-03-01T05:22:49;102174.63;;;3.82;94.75
71109;BME280;59614;51.012;-1.648;2023-03-01T05:25:15;102172.91;;;3.82;94.53
71109;BME280;59614;51.012;-1.648;2023-03-01T05:27:42;102173.56;;;3.77;95.01
71109;BME280;59614;51.012;-1.648;2023-03-01T05:30:08;102176.56;;;3.65;95.79
71109;BME280;59614;51.012;-1.648;2023-03-01T05:32:48;102163.50;;;3.65;95.81
71109;BME280;59614;51.012;-1.648;2023-03-01T05:35:16;102168.84;;;3.68;95.77
71109;BME280;59614;51.012;-1.648;2023-03-01T05:37:48;102168.72;;;3.65;95.81
71109;BME280;59614;51.012;-1.648;2023-03-01T05:40:23;102163.38;;;3.62;96.08
71109;BME280;59614;51.012;-1.648;2023-03-01T05:42:54;102169.81;;;3.70;96.46
71109;BME280;59614;51.012;-1.648;2023-03-01T05:45:21;102161.97;;;3.70;96.23
71109;BME280;59614;51.012;-1.648;2023-03-01T05:47:48;102161.84;;;3.67;97.36
71109;BME280;59614;51.012;-1.648;2023-03-01T05:50:19;102165.81;;;3.57;98.18
71109;BME280;59614;51.012;-1.648;2023-03-01T05:52:47;102161.72;;;3.64;98.66
71109;BME280;59614;51.012;-1.648;2023-03-01T05:55:13;102164.78;;;3.53;99.19
71109;BME280;59614;51.012;-1.648;2023-03-01T05:57:39;102159.19;;;3.44;99.25
71109;BME280;59614;51.012;-1.648;2023-03-01T06:00:05;102164.78;;;3.53;99.85
71109;BME280;59614;51.012;-1.648;2023-03-01T06:02:31;102154.63;;;3.60;99.45
71109;BME280;59614;51.012;-1.648;2023-03-01T06:04:57;102164.28;;;3.62;99.58
71109;BME280;59614;51.012;-1.648;2023-03-01T06:07:23;102154.81;;;3.43;99.93
71109;BME280;59614;51.012;-1.648;2023-03-01T06:09:49;102165.94;;;3.39;100.00
71109;BME280;59614;51.012;-1.648;2023-03-01T06:12:14;102155.94;;;3.50;99.84
71109;BME280;59614;51.012;-1.648;2023-03-01T06:14:39;102157.91;;;3.34;100.00
71109;BME280;59614;51.012;-1.648;2023-03-01T06:17:05;102159.38;;;3.49;100.00
71109;BME280;59614;51.012;-1.648;2023-03-01T06:19:30;102162.00;;;3.49;99.85
71109;BME280;59614;51.012;-1.648;2023-03-01T06:21:55;102163.84;;;3.51;99.43
71109;BME280;59614;51.012;-1.648;2023-03-01T06:24:21;102148.75;;;3.44;99.64
71109;BME280;59614;51.012;-1.648;2023-03-01T06:26:46;102158.00;;;3.36;100.00
71109;BME280;59614;51.012;-1.648;2023-03-01T06:29:12;102158.28;;;3.44;99.67
71109;BME280;59614;51.012;-1.648;2023-03-01T06:31:37;102155.75;;;3.45;99.89
71109;BME280;59614;51.012;-1.648;2023-03-01T06:34:03;102166.94;;;3.64;98.87
71109;BME280;59614;51.012;-1.648;2023-03-01T06:36:28;102160.06;;;3.66;98.44
71109;BME280;59614;51.012;-1.648;2023-03-01T06:38:53;102164.19;;;3.61;98.16
71109;BME280;59614;51.012;-1.648;2023-03-01T06:41:19;102161.66;;;3.62;98.65
71109;BME280;59614;51.012;-1.648;2023-03-01T06:43:44;102158.69;;;3.53;98.19
71109;BME280;59614;51.012;-1.648;2023-03-01T06:46:10;102161.22;;;3.51;98.74
71109;BME280;59614;51.012;-1.648;2023-03-01T06:48:35;102163.00;;;3.52;98.79
71109;BME280;59614;51.012;-1.648;2023-03-01T06:51:01;102159.84;;;3.60;99.05
71109;BME280;59614;51.012;-1.648;2023-03-01T06:53:27;102159.06;;;3.62;99.07
71109;BME280;59614;51.012;-1.648;2023-03-01T06:55:56;102166.59;;;3.77;98.57
71109;BME280;59614;51.012;-1.648;2023-03-01T06:58:22;102161.50;;;3.80;98.31
71109;BME280;59614;51.012;-1.648;2023-03-01T07:00:48;102162.09;;;3.73;98.33
71109;BME280;59614;51.012;-1.648;2023-03-01T07:03:13;102173.34;;;3.72;98.34
71109;BME280;59614;51.012;-1.648;2023-03-01T07:05:38;102179.16;;;3.65;98.58
71109;BME280;59614;51.012;-1.648;2023-03-01T07:08:04;102181.97;;;3.69;98.42
71109;BME280;59614;51.012;-1.648;2023-03-01T07:10:30;102182.97;;;3.73;97.98
71109;BME280;59614;51.012;-1.648;2023-03-01T07:12:59;102185.84;;;3.79;97.78
71109;BME280;59614;51.012;-1.648;2023-03-01T07:15:25;102193.69;;;3.79;97.46
71109;BME280;59614;51.012;-1.648;2023-03-01T07:17:51;102193.81;;;3.82;98.23
71109;BME280;59614;51.012;-1.648;2023-03-01T07:20:18;102191.13;;;3.81;97.46
71109;BME280;59614;51.012;-1.648;2023-03-01T07:22:44;102193.59;;;3.78;98.04
71109;BME280;59614;51.012;-1.648;2023-03-01T07:25:10;102191.13;;;3.81;97.35
71109;BME280;59614;51.012;-1.648;2023-03-01T07:27:35;102204.44;;;3.87;97.99
71109;BME280;59614;51.012;-1.648;2023-03-01T07:30:01;102198.63;;;3.94;97.50
71109;BME280;59614;51.012;-1.648;2023-03-01T07:32:27;102199.69;;;3.77;97.87
71109;BME280;59614;51.012;-1.648;2023-03-01T07:34:52;102202.28;;;3.77;98.13
71109;BME280;59614;51.012;-1.648;2023-03-01T07:37:18;102207.16;;;3.90;97.88
71109;BME280;59614;51.012;-1.648;2023-03-01T07:39:43;102202.25;;;3.98;97.27
71109;BME280;59614;51.012;-1.648;2023-03-01T07:42:09;102201.47;;;4.00;97.22
71109;BME280;59614;51.012;-1.648;2023-03-01T07:44:34;102203.25;;;4.01;97.04
71109;BME280;59614;51.012;-1.648;2023-03-01T07:47:00;102209.06;;;3.94;96.58
71109;BME280;59614;51.012;-1.648;2023-03-01T07:49:26;102208.06;;;3.91;97.41
71109;BME280;59614;51.012;-1.648;2023-03-01T07:51:52;102210.06;;;3.98;96.91
71109;BME280;59614;51.012;-1.648;2023-03-01T07:54:18;102202.88;;;3.92;96.80
71109;BME280;59614;51.012;-1.648;2023-03-01T07:56:43;102208.06;;;3.91;96.32
71109;BME280;59614;51.012;-1.648;2023-03-01T07:59:09;102201.06;;;3.90;96.41
71109;BME280;59614;51.012;-1.648;2023-03-01T08:01:34;102206.41;;;3.93;95.81
71109;BME280;59614;51.012;-1.648;2023-03-01T08:04:00;102192.25;;;3.88;95.68
71109;BME280;59614;51.012;-1.648;2023-03-01T08:06:26;102192.97;;;4.06;95.31
71109;BME280;59614;51.012;-1.648;2023-03-01T08:08:52;102188.59;;;4.05;95.40
71109;BME280;59614;51.012;-1.648;2023-03-01T08:11:20;102180.00;;;4.08;93.93
71109;BME280;59614;51.012;-1.648;2023-03-01T08:13:47;102179.69;;;4.23;94.11
71109;BME280;59614;51.012;-1.648;2023-03-01T08:16:14;102176.56;;;4.33;93.34
71109;BME280;59614;51.012;-1.648;2023-03-01T08:18:40;102178.91;;;4.25;93.22
71109;BME280;59614;51.012;-1.648;2023-03-01T08:21:10;102179.91;;;4.29;92.81
71109;BME280;59614;51.012;-1.648;2023-03-01T08:23:36;102178.47;;;4.37;92.38
71109;BME280;59614;51.012;-1.648;2023-03-01T08:26:14;102177.03;;;4.45;92.12
71109;BME280;59614;51.012;-1.648;2023-03-01T08:28:40;102179.16;;;4.31;92.29
71109;BME280;59614;51.012;-1.648;2023-03-01T08:31:18;102175.75;;;4.34;91.46
71109;BME280;59614;51.012;-1.648;2023-03-01T08:33:45;102173.63;;;4.48;91.41
71109;BME280;59614;51.012;-1.648;2023-03-01T08:36:16;102167.78;;;4.31;92.08
71109;BME280;59614;51.012;-1.648;2023-03-01T08:38:41;102167.69;;;4.52;91.10
71109;BME280;59614;51.012;-1.648;2023-03-01T08:41:07;102169.25;;;4.47;91.06
71109;BME280;59614;51.012;-1.648;2023-03-01T08:43:32;102165.78;;;4.48;90.66
71109;BME280;59614;51.012;-1.648;2023-03-01T08:45:58;102168.56;;;4.53;89.97
71109;BME280;59614;51.012;-1.648;2023-03-01T08:48:23;102173.91;;;4.56;90.01
71109;BME280;59614;51.012;-1.648;2023-03-01T08:50:49;102172.75;;;4.47;88.86
71109;BME280;59614;51.012;-1.648;2023-03-01T08:53:14;102172.38;;;4.61;88.74
71109;BME280;59614;51.012;-1.648;2023-03-01T08:55:40;102168.59;;;4.77;87.59
71109;BME280;59614;51.012;-1.648;2023-03-01T08:58:05;102170.41;;;4.79;87.21
71109;BME280;59614;51.012;-1.648;2023-03-01T09:00:30;102167.28;;;4.90;87.25
71109;BME280;59614;51.012;-1.648;2023-03-01T09:02:59;102169.75;;;5.11;86.81
71109;BME280;59614;51.012;-1.648;2023-03-01T09:05:25;102162.78;;;5.12;85.91
71109;BME280;59614;51.012;-1.648;2023-03-01T09:07:50;102172.72;;;5.22;84.93
71109;BME280;59614;51.012;-1.648;2023-03-01T09:10:16;102155.88;;;5.39;84.37
71109;BME280;59614;51.012;-1.648;2023-03-01T09:12:41;102160.69;;;5.27;84.05
71109;BME280;59614;51.012;-1.648;2023-03-01T09:15:07;102152.50;;;5.44;83.11
71109;BME280;59614;51.012;-1.648;2023-03-01T09:17:32;102165.75;;;5.48;82.52
71109;BME280;59614;51.012;-1.648;2023-03-01T09:19:58;102153.47;;;5.47;82.68
71109;BME280;59614;51.012;-1.648;2023-03-01T09:22:24;102156.09;;;5.75;81.76
71109;BME280;59614;51.012;-1.648;2023-03-01T09:24:50;102156.56;;;5.90;80.86
71109;BME280;59614;51.012;-1.648;2023-03-01T09:27:15;102150.81;;;5.73;81.58
71109;BME280;59614;51.012;-1.648;2023-03-01T09:29:44;102162.00;;;5.67;80.71
71109;BME280;59614;51.012;-1.648;2023-03-01T09:32:09;102158.41;;;5.65;81.36
71109;BME280;59614;51.012;-1.648;2023-03-01T09:34:35;102153.84;;;5.58;80.50
71109;BME280;59614;51.012;-1.648;2023-03-01T09:37:20;102148.59;;;5.58;80.82
71109;BME280;59614;51.012;-1.648;2023-03-01T09:39:46;102145.84;;;5.53;81.15
71109;BME280;59614;51.012;-1.648;2023-03-01T09:42:12;102139.22;;;5.37;80.06
71109;BME280;59614;51.012;-1.648;2023-03-01T09:49:58;102141.31;;;5.77;79.35
71109;BME280;59614;51.012;-1.648;2023-03-01T09:54:54;102115.13;;;5.77;77.34
71109;BME280;59614;51.012;-1.648;2023-03-01T09:57:30;102111.84;;;6.13;76.37
71109;BME280;59614;51.012;-1.648;2023-03-01T10:06:01;102112.88;;;6.18;77.01
71109;BME280;59614;51.012;-1.648;2023-03-01T10:08:53;102114.94;;;6.28;77.30
71109;BME280;59614;51.012;-1.648;2023-03-01T10:11:23;102117.94;;;5.83;77.80
71109;BME280;59614;51.012;-1.648;2023-03-01T10:14:22;102110.03;;;6.10;78.27
71109;BME280;59614;51.012;-1.648;2023-03-01T10:17:10;102114.31;;;6.07;77.89
71109;BME280;59614;51.012;-1.648;2023-03-01T10:19:43;102104.56;;;5.74;77.85
71109;BME280;59614;51.012;-1.648;2023-03-01T10:24:43;102100.72;;;5.91;78.06
71109;BME280;59614;51.012;-1.648;2023-03-01T10:27:24;102100.53;;;6.14;77.17
71109;BME280;59614;51.012;-1.648;2023-03-01T10:29:57;102099.16;;;5.98;75.97
71109;BME280;59614;51.012;-1.648;2023-03-01T10:32:26;102098.78;;;5.85;77.07
71109;BME280;59614;51.012;-1.648;2023-03-01T10:34:51;102094.72;;;5.95;76.62
71109;BME280;59614;51.012;-1.648;2023-03-01T10:37:18;102083.28;;;6.22;75.80
71109;BME280;59614;51.012;-1.648;2023-03-01T10:40:07;102084.97;;;6.20;75.15
71109;BME280;59614;51.012;-1.648;2023-03-01T10:42:46;102088.47;;;6.21;75.25
71109;BME280;59614;51.012;-1.648;2023-03-01T10:47:40;102080.44;;;6.14;75.27
71109;BME280;59614;51.012;-1.648;2023-03-01T10:50:18;102074.94;;;6.05;74.92
71109;BME280;59614;51.012;-1.648;2023-03-01T10:52:56;102075.06;;;6.10;74.68
71109;BME280;59614;51.012;-1.648;2023-03-01T10:55:37;102079.72;;;6.20;74.59
71109;BME280;59614;51.012;-1.648;2023-03-01T10:58:20;102068.25;;;6.16;74.64
71109;BME280;59614;51.012;-1.648;2023-03-01T11:03:25;102073.47;;;6.47;74.48
71109;BME280;59614;51.012;-1.648;2023-03-01T11:05:57;102071.53;;;6.40;75.11
71109;BME280;59614;51.012;-1.648;2023-03-01T11:13:34;102071.88;;;5.91;77.06
71109;BME280;59614;51.012;-1.648;2023-03-01T11:16:03;102071.88;;;5.91;77.38
71109;BME280;59614;51.012;-1.648;2023-03-01T11:18:30;102061.41;;;5.91;77.54
71109;BME280;59614;51.012;-1.648;2023-03-01T11:20:57;102054.91;;;6.07;77.83
71109;BME280;59614;51.012;-1.648;2023-03-01T11:23:24;102053.25;;;6.11;77.73
71109;BME280;59614;51.012;-1.648;2023-03-01T11:26:02;102056.44;;;6.00;78.35
71109;BME280;59614;51.012;-1.648;2023-03-01T11:28:32;102047.91;;;5.77;79.43
71109;BME280;59614;51.012;-1.648;2023-03-01T11:31:04;102047.63;;;5.98;79.70
71109;BME280;59614;51.012;-1.648;2023-03-01T11:33:39;102038.94;;;5.99;79.20
71109;BME280;59614;51.012;-1.648;2023-03-01T11:38:41;102033.44;;;6.21;77.75
71109;BME280;59614;51.012;-1.648;2023-03-01T11:41:42;102037.34;;;6.05;77.41
71109;BME280;59614;51.012;-1.648;2023-03-01T11:44:16;102045.56;;;5.88;77.78
71109;BME280;59614;51.012;-1.648;2023-03-01T11:50:07;102042.22;;;5.92;78.17
71109;BME280;59614;51.012;-1.648;2023-03-01T11:55:42;102018.84;;;6.30;77.61
71109;BME280;59614;51.012;-1.648;2023-03-01T12:04:04;102006.56;;;6.29;76.43
71109;BME280;59614;51.012;-1.648;2023-03-01T12:17:46;101991.31;;;6.48;75.88
71109;BME280;59614;51.012;-1.648;2023-03-01T12:29:20;101973.44;;;7.45;73.67
71109;BME280;59614;51.012;-1.648;2023-03-01T12:39:36;101955.19;;;7.11;73.41
71109;BME280;59614;51.012;-1.648;2023-03-01T12:42:31;101941.59;;;7.29;73.14
71109;BME280;59614;51.012;-1.648;2023-03-01T12:45:23;101932.34;;;7.47;72.48
71109;BME280;59614;51.012;-1.648;2023-03-01T12:48:35;101924.03;;;7.69;72.10
71109;BME280;59614;51.012;-1.648;2023-03-01T12:51:01;101924.06;;;7.72;70.43
71109;BME280;59614;51.012;-1.648;2023-03-01T12:53:48;101913.59;;;7.74;70.07
71109;BME280;59614;51.012;-1.648;2023-03-01T12:56:29;101907.81;;;7.94;70.11
71109;BME280;59614;51.012;-1.648;2023-03-01T13:01:45;101897.53;;;7.60;69.05
71109;BME280;59614;51.012;-1.648;2023-03-01T13:04:16;101888.63;;;7.50;70.53
71109;BME280;59614;51.012;-1.648;2023-03-01T13:07:09;101886.63;;;7.84;68.51
71109;BME280;59614;51.012;-1.648;2023-03-01T13:12:02;101889.06;;;7.29;69.90
71109;BME280;59614;51.012;-1.648;2023-03-01T13:14:37;101887.91;;;7.16;70.06
71109;BME280;59614;51.012;-1.648;2023-03-01T13:17:29;101883.63;;;7.20;70.88
71109;BME280;59614;51.012;-1.648;2023-03-01T13:19:59;101872.50;;;7.32;71.13
71109;BME280;59614;51.012;-1.648;2023-03-01T13:22:28;101869.31;;;7.50;70.32
71109;BME280;59614;51.012;-1.648;2023-03-01T13:25:10;101869.22;;;7.91;69.74
71109;BME280;59614;51.012;-1.648;2023-03-01T13:27:36;101871.81;;;7.89;69.07
71109;BME280;59614;51.012;-1.648;2023-03-01T13:30:02;101861.19;;;7.83;69.08
71109;BME280;59614;51.012;-1.648;2023-03-01T13:32:35;101864.38;;;7.67;70.25
71109;BME280;59614;51.012;-1.648;2023-03-01T13:37:40;101854.16;;;7.35;71.13
71109;BME280;59614;51.012;-1.648;2023-03-01T13:42:46;101855.00;;;7.34;71.20
71109;BME280;59614;51.012;-1.648;2023-03-01T13:45:38;101859.66;;;7.49;72.45
71109;BME280;59614;51.012;-1.648;2023-03-01T13:48:15;101854.53;;;7.53;72.42
71109;BME280;59614;51.012;-1.648;2023-03-01T13:50:51;101848.56;;;8.14;70.93
71109;BME280;59614;51.012;-1.648;2023-03-01T13:53:19;101845.03;;;8.11;69.65
71109;BME280;59614;51.012;-1.648;2023-03-01T13:55:52;101848.56;;;8.14;69.85
71109;BME280;59614;51.012;-1.648;2023-03-01T14:01:05;101837.53;;;7.83;70.67
71109;BME280;59614;51.012;-1.648;2023-03-01T14:03:33;101827.44;;;7.57;71.93
71109;BME280;59614;51.012;-1.648;2023-03-01T14:06:06;101827.50;;;7.59;72.04
71109;BME280;59614;51.012;-1.648;2023-03-01T14:08:33;101822.72;;;7.39;72.14
71109;BME280;59614;51.012;-1.648;2023-03-01T14:21:41;101807.69;;;6.88;75.25
71109;BME280;59614;51.012;-1.648;2023-03-01T14:24:17;101811.53;;;6.62;76.60
71109;BME280;59614;51.012;-1.648;2023-03-01T14:26:43;101799.56;;;6.75;76.46
71109;BME280;59614;51.012;-1.648;2023-03-01T14:29:36;101798.47;;;7.07;75.78
71109;BME280;59614;51.012;-1.648;2023-03-01T14:32:20;101795.28;;;7.23;76.97
71109;BME280;59614;51.012;-1.648;2023-03-01T14:34:48;101785.13;;;7.42;78.02
71109;BME280;59614;51.012;-1.648;2023-03-01T14:39:55;101784.72;;;7.20;77.59
71109;BME280;59614;51.012;-1.648;2023-03-01T14:42:23;101779.91;;;7.45;77.18